createdAt,value
2023-05-05T00:01:07.721Z,9.00
2023-05-05T00:03:36.997Z,10.10
2023-05-05T00:06:06.020Z,8.30
2023-05-05T00:08:34.506Z,8.90
2023-05-05T00:11:03.056Z,8.60
2023-05-05T00:13:31.589Z,9.60
2023-05-05T00:16:00.924Z,9.80
2023-05-05T00:18:29.691Z,10.00
2023-05-05T00:20:58.074Z,8.80
2023-05-05T00:23:26.781Z,9.50
2023-05-05T00:25:57.497Z,9.60
2023-05-05T00:28:28.647Z,9.50
2023-05-05T00:30:56.868Z,9.80
2023-05-05T00:33:26.123Z,9.30
2023-05-05T00:35:54.521Z,8.90
2023-05-05T00:38:23.742Z,9.40
2023-05-05T00:40:52.019Z,9.50
2023-05-05T00:43:20.204Z,8.70
2023-05-05T00:45:57.403Z,10.40
2023-05-05T00:48:26.474Z,9.70
2023-05-05T00:50:54.754Z,9.90
2023-05-05T00:53:23.548Z,9.50
2023-05-05T00:55:52.357Z,10.40
2023-05-05T00:58:20.726Z,10.60
2023-05-05T01:00:49.009Z,10.00
2023-05-05T01:03:17.352Z,9.70
2023-05-05T01:05:58.536Z,11.10
2023-05-05T01:08:55.708Z,9.60
2023-05-05T01:11:31.614Z,10.40
2023-05-05T01:14:19.395Z,9.90
2023-05-05T01:17:00.371Z,9.40
2023-05-05T01:19:50.516Z,9.20
2023-05-05T01:22:23.215Z,10.10
2023-05-05T01:25:15.110Z,10.10
2023-05-05T01:28:01.053Z,10.80
2023-05-05T01:30:53.363Z,10.00
2023-05-05T01:33:27.782Z,9.80
2023-05-05T01:36:07.736Z,10.10
2023-05-05T01:38:42.574Z,9.30
2023-05-05T01:41:28.552Z,9.40
2023-05-05T01:44:01.140Z,10.00
2023-05-05T01:46:30.708Z,10.10
2023-05-05T01:48:59.052Z,9.60
2023-05-05T01:51:28.784Z,10.00
2023-05-05T01:54:00.195Z,9.80
2023-05-05T01:56:30.629Z,10.30
2023-05-05T01:59:01.216Z,10.90
2023-05-05T02:01:30.552Z,10.20
2023-05-05T02:03:59.621Z,9.50
2023-05-05T02:06:32.678Z,10.30
2023-05-05T02:09:03.782Z,13.10
2023-05-05T02:11:32.697Z,13.20
2023-05-05T02:14:02.353Z,10.30
2023-05-05T02:16:31.356Z,10.50
2023-05-05T02:19:05.283Z,12.60
2023-05-05T02:21:34.569Z,12.10
2023-05-05T02:24:03.751Z,11.10
2023-05-05T02:26:35.708Z,11.30
2023-05-05T02:29:14.627Z,13.20
2023-05-05T02:31:53.431Z,9.60
2023-05-05T02:34:26.680Z,11.00
2023-05-05T02:37:03.323Z,11.10
2023-05-05T02:39:43.643Z,11.10
2023-05-05T02:42:21.367Z,10.30
2023-05-05T02:44:52.215Z,11.60
2023-05-05T02:47:21.216Z,11.60
2023-05-05T02:49:50.837Z,10.60
2023-05-05T02:52:19.310Z,11.20
2023-05-05T02:54:48.002Z,11.50
2023-05-05T02:57:21.457Z,10.90
2023-05-05T03:00:09.914Z,11.80
2023-05-05T03:02:54.392Z,12.80
2023-05-05T03:05:25.302Z,12.60
2023-05-05T03:08:37.036Z,11.50
2023-05-05T03:11:11.694Z,11.40
2023-05-05T03:13:44.112Z,11.80
2023-05-05T03:16:18.534Z,12.80
2023-05-05T03:18:50.093Z,12.40
2023-05-05T03:21:19.301Z,13.10
2023-05-05T03:23:47.776Z,13.10
2023-05-05T03:26:20.264Z,12.70
2023-05-05T03:28:49.072Z,12.60
2023-05-05T03:31:22.183Z,13.10
2023-05-05T03:33:54.122Z,13.00
2023-05-05T03:36:25.086Z,14.10
2023-05-05T03:38:55.707Z,13.40
2023-05-05T03:41:25.517Z,13.60
2023-05-05T03:43:54.197Z,14.20
2023-05-05T03:46:23.584Z,14.50
2023-05-05T03:48:52.396Z,13.60
2023-05-05T03:51:20.779Z,13.80
2023-05-05T03:53:49.576Z,13.80
2023-05-05T03:56:18.064Z,13.90
2023-05-05T03:58:46.762Z,14.70
2023-05-05T04:01:15.462Z,14.50
2023-05-05T04:03:43.709Z,14.20
2023-05-05T04:06:12.319Z,14.20
2023-05-05T04:08:40.809Z,14.40
2023-05-05T04:11:09.097Z,16.40
2023-05-05T04:13:37.681Z,14.10
2023-05-05T04:16:06.443Z,14.80
2023-05-05T04:18:34.696Z,13.70
2023-05-05T04:21:03.475Z,14.60
2023-05-05T04:23:32.134Z,14.40
2023-05-05T04:26:00.954Z,14.30
2023-05-05T04:28:29.624Z,14.30
2023-05-05T04:30:59.555Z,14.00
2023-05-05T04:33:28.848Z,14.10
2023-05-05T04:35:57.335Z,13.80
2023-05-05T04:38:26.058Z,14.90
2023-05-05T04:40:54.920Z,15.00
2023-05-05T04:43:23.716Z,13.80
2023-05-05T04:45:53.809Z,15.30
2023-05-05T04:48:23.495Z,15.50
2023-05-05T04:50:52.965Z,14.80
2023-05-05T04:53:21.266Z,15.30
2023-05-05T04:55:50.143Z,14.40
2023-05-05T04:58:19.345Z,15.30
2023-05-05T05:00:50.273Z,14.70
2023-05-05T05:03:23.285Z,16.00
2023-05-05T05:05:51.746Z,15.10
2023-05-05T05:08:20.178Z,16.00
2023-05-05T05:10:48.645Z,18.30
2023-05-05T05:13:16.949Z,15.50
2023-05-05T05:15:45.974Z,14.50
2023-05-05T05:18:14.458Z,15.60
2023-05-05T05:20:42.900Z,14.70
2023-05-05T05:23:12.062Z,14.80
2023-05-05T05:25:43.756Z,14.60
2023-05-05T05:28:12.748Z,14.40
2023-05-05T05:30:47.681Z,14.50
2023-05-05T05:33:16.581Z,14.80
2023-05-05T05:35:45.883Z,14.70
2023-05-05T05:38:15.407Z,13.50
2023-05-05T05:40:44.423Z,16.20
2023-05-05T05:43:14.013Z,14.60
2023-05-05T05:45:43.656Z,14.40
2023-05-05T05:48:16.209Z,15.00
2023-05-05T05:50:45.341Z,14.10
2023-05-05T05:53:14.227Z,14.60
2023-05-05T05:55:45.956Z,14.30
2023-05-05T05:58:14.949Z,13.70
2023-05-05T06:00:43.881Z,14.70
2023-05-05T06:03:13.829Z,13.30
2023-05-05T06:05:43.175Z,13.20
2023-05-05T06:08:12.656Z,13.60
2023-05-05T06:13:17.154Z,13.80
2023-05-05T06:15:47.952Z,13.00
2023-05-05T06:18:16.475Z,13.20
2023-05-05T06:20:45.254Z,13.00
2023-05-05T06:23:14.768Z,14.00
2023-05-05T06:25:47.964Z,12.90
2023-05-05T06:28:16.448Z,12.00
2023-05-05T06:30:44.933Z,13.10
2023-05-05T06:33:13.520Z,12.20
2023-05-05T06:35:41.797Z,11.90
2023-05-05T06:38:10.489Z,13.50
2023-05-05T06:40:39.185Z,12.60
2023-05-05T06:43:07.975Z,15.20
2023-05-05T06:45:43.796Z,15.70
2023-05-05T06:48:12.974Z,12.20
2023-05-05T06:50:41.163Z,11.80
2023-05-05T06:53:09.212Z,11.40
2023-05-05T06:55:37.476Z,11.10
2023-05-05T06:58:06.068Z,10.90
2023-05-05T07:00:34.399Z,11.30
2023-05-05T07:03:02.758Z,11.00
2023-05-05T07:05:30.965Z,12.50
2023-05-05T07:07:59.574Z,11.70
2023-05-05T07:10:28.447Z,11.50
2023-05-05T07:12:56.864Z,11.00
2023-05-05T07:15:29.105Z,9.80
2023-05-05T07:17:58.588Z,9.50
2023-05-05T07:20:27.945Z,9.60
2023-05-05T07:22:56.260Z,10.80
2023-05-05T07:25:24.478Z,9.30
2023-05-05T07:27:55.604Z,10.00
2023-05-05T07:30:26.249Z,9.20
2023-05-05T07:32:55.628Z,9.30
2023-05-05T07:35:23.897Z,8.60
2023-05-05T07:37:52.607Z,9.90
2023-05-05T07:40:21.113Z,10.40
2023-05-05T07:42:49.976Z,10.30
2023-05-05T07:45:18.162Z,9.60
2023-05-05T07:47:46.801Z,10.20
2023-05-05T07:50:15.481Z,9.70
2023-05-05T07:52:50.042Z,9.90
2023-05-05T07:55:23.190Z,10.50
2023-05-05T07:57:51.847Z,8.90
2023-05-05T08:00:21.874Z,8.20
2023-05-05T08:02:50.142Z,8.20
2023-05-05T08:05:19.977Z,8.50
2023-05-05T08:07:48.171Z,8.20
2023-05-05T08:10:16.549Z,9.20
2023-05-05T08:12:45.679Z,9.40
2023-05-05T08:15:14.449Z,9.60
2023-05-05T08:17:49.728Z,9.80
2023-05-05T08:20:19.717Z,8.10
2023-05-05T08:22:48.502Z,7.30
2023-05-05T08:25:17.081Z,7.40
2023-05-05T08:27:46.291Z,9.10
2023-05-05T08:30:17.572Z,7.10
2023-05-05T08:32:47.271Z,7.70
2023-05-05T08:35:16.334Z,6.90
2023-05-05T08:37:47.554Z,6.90
2023-05-05T08:40:16.618Z,11.70
2023-05-05T08:42:46.119Z,6.10
2023-05-05T08:45:16.260Z,6.90
2023-05-05T08:47:49.498Z,6.50
2023-05-05T08:50:48.442Z,6.50
2023-05-05T08:53:19.609Z,6.10
2023-05-05T08:55:51.733Z,6.30
2023-05-05T08:58:21.555Z,5.60
2023-05-05T09:00:50.993Z,5.40
2023-05-05T09:03:19.651Z,5.00
2023-05-05T09:05:48.021Z,4.40
2023-05-05T09:08:17.938Z,4.60
2023-05-05T09:10:47.475Z,4.90
2023-05-05T09:13:15.806Z,4.50
2023-05-05T09:15:44.936Z,2.10
2023-05-05T09:18:13.631Z,2.00
2023-05-05T09:20:42.006Z,2.20
2023-05-05T09:23:15.949Z,3.40
2023-05-05T09:25:46.334Z,1.90
2023-05-05T09:28:18.265Z,2.30
2023-05-05T09:30:47.478Z,2.50
2023-05-05T09:33:29.313Z,2.60
2023-05-05T09:35:58.635Z,2.20
2023-05-05T09:38:26.903Z,3.00
2023-05-05T09:40:55.806Z,2.70
2023-05-05T09:43:24.801Z,1.70
2023-05-05T09:46:07.477Z,4.30
2023-05-05T09:48:36.338Z,2.00
2023-05-05T09:51:04.596Z,2.50
2023-05-05T09:53:45.475Z,1.70
2023-05-05T09:58:49.698Z,2.10
2023-05-05T10:01:26.935Z,1.50
2023-05-05T10:03:55.580Z,2.30
2023-05-05T10:06:40.074Z,2.30
2023-05-05T10:09:08.200Z,2.10
2023-05-05T10:11:37.239Z,1.90
2023-05-05T10:14:09.017Z,2.10
2023-05-05T10:16:43.612Z,2.30
2023-05-05T10:19:16.415Z,2.00
2023-05-05T10:22:02.255Z,1.90
2023-05-05T10:24:52.516Z,2.00
2023-05-05T10:27:24.589Z,2.60
2023-05-05T10:30:06.619Z,2.00
2023-05-05T10:32:59.293Z,2.10
2023-05-05T10:35:40.017Z,1.80
2023-05-05T10:38:10.062Z,1.70
2023-05-05T10:40:46.097Z,2.00
2023-05-05T10:43:14.941Z,2.20
2023-05-05T10:45:49.098Z,1.80
2023-05-05T10:48:47.412Z,2.00
2023-05-05T10:51:38.702Z,2.30
2023-05-05T10:54:17.193Z,2.40
2023-05-05T10:56:48.832Z,1.90
2023-05-05T10:59:47.848Z,2.10
2023-05-05T11:02:22.173Z,2.10
2023-05-05T11:05:20.737Z,2.10
2023-05-05T11:07:50.976Z,2.20
2023-05-05T11:10:20.967Z,1.90
2023-05-05T11:12:52.359Z,2.00
2023-05-05T11:15:28.116Z,1.80
2023-05-05T11:18:05.822Z,1.90
2023-05-05T11:20:39.935Z,2.10
2023-05-05T11:23:08.285Z,2.30
2023-05-05T11:25:37.409Z,1.90
2023-05-05T11:28:08.737Z,1.70
2023-05-05T11:30:59.381Z,2.30
2023-05-05T11:33:30.571Z,1.90
2023-05-05T11:35:59.884Z,1.90
2023-05-05T11:39:05.831Z,2.30
2023-05-05T11:41:53.127Z,2.20
2023-05-05T11:44:30.987Z,2.10
2023-05-05T11:47:03.436Z,2.30
2023-05-05T11:49:36.194Z,2.60
2023-05-05T11:52:06.942Z,2.70
2023-05-05T11:54:36.986Z,2.30
2023-05-05T11:57:07.496Z,2.20
2023-05-05T11:59:37.723Z,2.40
2023-05-05T12:02:06.215Z,2.80
2023-05-05T12:04:40.151Z,2.60
2023-05-05T12:07:15.539Z,2.50
2023-05-05T12:09:45.730Z,2.70
2023-05-05T12:12:15.212Z,2.50
2023-05-05T12:14:47.609Z,3.00
2023-05-05T12:17:16.159Z,3.10
2023-05-05T12:19:55.424Z,2.60
2023-05-05T12:22:27.491Z,1.90
2023-05-05T12:25:04.747Z,2.30
2023-05-05T12:27:33.010Z,4.00
2023-05-05T12:30:18.496Z,2.60
2023-05-05T12:32:46.863Z,2.40
2023-05-05T12:35:17.188Z,2.30
2023-05-05T12:37:46.111Z,2.50
2023-05-05T12:41:02.795Z,2.40
2023-05-05T12:43:35.595Z,2.00
2023-05-05T12:46:05.496Z,2.40
2023-05-05T12:48:35.186Z,2.20
2023-05-05T12:51:10.768Z,2.30
2023-05-05T12:53:39.158Z,2.40
2023-05-05T12:56:36.808Z,2.40
2023-05-05T12:59:25.884Z,2.40
2023-05-05T13:02:02.982Z,2.80
2023-05-05T13:04:31.935Z,3.70
2023-05-05T13:07:13.948Z,3.10
2023-05-05T13:09:42.446Z,2.60
2023-05-05T13:12:14.378Z,3.00
2023-05-05T13:14:43.572Z,2.60
2023-05-05T13:17:12.774Z,2.90
2023-05-05T13:19:46.642Z,3.30
2023-05-05T13:22:15.142Z,3.20
2023-05-05T13:24:51.519Z,3.60
2023-05-05T13:27:21.459Z,3.70
2023-05-05T13:29:49.926Z,3.90
2023-05-05T13:32:18.181Z,3.50
2023-05-05T13:34:46.337Z,3.20
2023-05-05T13:37:14.927Z,3.50
2023-05-05T13:39:44.027Z,3.60
2023-05-05T13:42:12.313Z,4.00
2023-05-05T13:44:40.683Z,3.50
2023-05-05T13:47:09.245Z,5.30
2023-05-05T13:49:37.765Z,4.30
2023-05-05T13:52:06.271Z,3.80
2023-05-05T13:54:40.381Z,3.70
2023-05-05T13:57:11.397Z,3.50
2023-05-05T13:59:39.924Z,4.20
2023-05-05T14:02:08.270Z,3.50
2023-05-05T14:04:37.786Z,4.10
2023-05-05T14:07:06.791Z,4.10
2023-05-05T14:09:35.168Z,4.10
2023-05-05T14:12:03.771Z,3.90
2023-05-05T14:14:31.941Z,5.50
2023-05-05T14:17:00.562Z,3.80
2023-05-05T14:19:29.121Z,4.20
2023-05-05T14:21:57.772Z,3.90
2023-05-05T14:24:26.289Z,3.80
2023-05-05T14:26:54.573Z,4.80
2023-05-05T14:29:23.268Z,4.50
2023-05-05T14:31:51.999Z,5.00
2023-05-05T14:34:20.444Z,4.60
2023-05-05T14:36:49.039Z,5.00
2023-05-05T14:39:17.622Z,4.80
2023-05-05T14:41:46.728Z,5.20
2023-05-05T14:44:14.942Z,4.40
2023-05-05T14:46:45.998Z,4.30
2023-05-05T14:49:15.155Z,4.20
2023-05-05T14:51:45.278Z,4.80
2023-05-05T14:54:24.540Z,3.60
2023-05-05T14:56:56.585Z,3.60
2023-05-05T14:59:29.685Z,4.10
2023-05-05T15:01:58.181Z,4.10
2023-05-05T15:04:26.849Z,4.30
2023-05-05T15:06:55.450Z,3.90
2023-05-05T15:09:23.713Z,4.50
2023-05-05T15:11:52.006Z,3.80
2023-05-05T15:14:20.225Z,4.90
2023-05-05T15:16:48.672Z,3.50
2023-05-05T15:19:17.563Z,3.40
2023-05-05T15:21:54.161Z,2.90
2023-05-05T15:24:22.677Z,3.00
2023-05-05T15:26:51.418Z,2.60
2023-05-05T15:29:20.119Z,2.40
2023-05-05T15:31:48.932Z,2.70
2023-05-05T15:34:17.086Z,2.10
2023-05-05T15:36:45.568Z,2.50
2023-05-05T15:39:14.250Z,2.10
2023-05-05T15:41:45.338Z,2.30
2023-05-05T15:44:16.651Z,2.10
2023-05-05T15:46:45.064Z,2.60
2023-05-05T15:49:13.338Z,2.30
2023-05-05T15:51:42.017Z,2.60
2023-05-05T15:54:10.409Z,2.40
2023-05-05T15:56:38.888Z,2.30
2023-05-05T15:59:07.800Z,2.60
2023-05-05T16:01:36.663Z,2.20
2023-05-05T16:04:05.493Z,2.60
2023-05-05T16:06:34.571Z,2.70
2023-05-05T16:09:09.092Z,2.40
2023-05-05T16:11:39.950Z,2.70
2023-05-05T16:14:08.224Z,3.20
2023-05-05T16:16:37.097Z,2.00
2023-05-05T16:19:05.504Z,2.60
2023-05-05T16:21:33.677Z,2.30
2023-05-05T16:24:04.528Z,2.60
2023-05-05T16:26:33.000Z,2.70
2023-05-05T16:29:04.137Z,2.90
2023-05-05T16:31:34.152Z,2.70
2023-05-05T16:34:03.318Z,3.10
2023-05-05T16:36:32.391Z,3.20
2023-05-05T16:39:01.233Z,3.20
2023-05-05T16:41:30.086Z,3.20
2023-05-05T16:43:58.875Z,3.70
2023-05-05T16:46:27.230Z,3.30
2023-05-05T16:48:55.832Z,3.10
2023-05-05T16:51:24.289Z,3.00
2023-05-05T16:53:52.610Z,4.00
2023-05-05T16:56:21.394Z,3.70
2023-05-05T16:58:49.986Z,3.80
2023-05-05T17:01:18.279Z,4.70
2023-05-05T17:03:46.551Z,3.90
2023-05-05T17:06:15.243Z,4.20
2023-05-05T17:08:43.331Z,3.70
2023-05-05T17:11:12.015Z,4.20
2023-05-05T17:13:40.907Z,5.10
2023-05-05T17:16:09.427Z,4.20
2023-05-05T17:18:37.732Z,4.60
2023-05-05T17:21:09.235Z,4.00
2023-05-05T17:23:37.723Z,4.60
2023-05-05T17:26:06.014Z,4.90
2023-05-05T17:28:34.592Z,4.50
2023-05-05T17:31:03.406Z,4.40
2023-05-05T17:33:32.759Z,4.30
2023-05-05T17:36:03.760Z,4.90
2023-05-05T17:38:32.632Z,4.50
2023-05-05T17:41:01.042Z,4.20
2023-05-05T17:43:29.144Z,4.30
2023-05-05T17:45:57.665Z,4.40
2023-05-05T17:48:26.764Z,4.40
2023-05-05T17:50:55.081Z,5.20
2023-05-05T17:53:23.552Z,5.50
2023-05-05T17:55:52.250Z,5.40
2023-05-05T17:58:21.148Z,7.00
2023-05-05T18:00:49.422Z,5.80
2023-05-05T18:03:18.033Z,5.50
2023-05-05T18:05:46.709Z,6.40
2023-05-05T18:08:15.223Z,7.30
2023-05-05T18:10:43.639Z,7.00
2023-05-05T18:13:11.810Z,7.60
2023-05-05T18:15:40.633Z,7.90
2023-05-05T18:18:10.297Z,7.80
2023-05-05T18:20:38.567Z,8.70
2023-05-05T18:23:09.421Z,10.60
2023-05-05T18:25:39.311Z,10.20
2023-05-05T18:28:07.694Z,9.60
2023-05-05T18:30:36.390Z,9.60
2023-05-05T18:33:05.526Z,8.40
2023-05-05T18:35:34.179Z,8.80
2023-05-05T18:38:06.223Z,10.00
2023-05-05T18:40:37.425Z,10.80
2023-05-05T18:43:05.574Z,9.60
2023-05-05T18:45:33.926Z,9.90
2023-05-05T18:48:03.154Z,9.10
2023-05-05T18:50:33.391Z,9.00
2023-05-05T18:53:07.722Z,10.20
2023-05-05T18:55:36.295Z,9.90
2023-05-05T18:58:04.684Z,9.50
2023-05-05T19:00:32.881Z,10.50
2023-05-05T19:03:03.816Z,10.60
2023-05-05T19:05:34.195Z,10.90
2023-05-05T19:08:02.551Z,11.10
2023-05-05T19:10:31.001Z,12.20
2023-05-05T19:12:59.517Z,11.40
2023-05-05T19:15:28.131Z,9.50
2023-05-05T19:18:02.783Z,9.70
2023-05-05T19:20:32.038Z,11.40
2023-05-05T19:23:03.940Z,10.10
2023-05-05T19:25:32.366Z,9.90
2023-05-05T19:28:01.010Z,9.60
2023-05-05T19:30:29.524Z,10.40
2023-05-05T19:32:58.467Z,10.60
2023-05-05T19:35:27.029Z,10.90
2023-05-05T19:37:56.225Z,10.00
2023-05-05T19:40:24.927Z,10.90
2023-05-05T19:42:53.199Z,11.30
2023-05-05T19:45:21.590Z,10.40
2023-05-05T19:47:49.774Z,9.80
2023-05-05T19:50:18.658Z,10.20
2023-05-05T19:52:47.047Z,10.20
2023-05-05T19:55:15.935Z,10.10
2023-05-05T19:57:44.764Z,10.20
2023-05-05T20:00:13.782Z,10.80
2023-05-05T20:02:42.170Z,9.90
2023-05-05T20:05:14.111Z,9.70
2023-05-05T20:07:42.365Z,10.40
2023-05-05T20:10:13.500Z,10.20
2023-05-05T20:12:47.872Z,11.10
2023-05-05T20:15:19.400Z,10.00
2023-05-05T20:17:48.717Z,11.20
2023-05-05T20:20:20.933Z,11.30
2023-05-05T20:22:49.702Z,10.50
2023-05-05T20:25:18.157Z,11.90
2023-05-05T20:27:46.661Z,10.60
2023-05-05T20:30:15.023Z,10.90
2023-05-05T20:32:43.539Z,11.70
2023-05-05T20:35:13.335Z,10.70
2023-05-05T20:37:42.038Z,10.30
2023-05-05T20:40:15.521Z,11.80
2023-05-05T20:42:45.774Z,10.70
2023-05-05T20:45:14.334Z,11.00
2023-05-05T20:47:42.649Z,10.40
2023-05-05T20:50:11.823Z,11.40
2023-05-05T20:52:40.095Z,11.20
2023-05-05T20:55:08.768Z,10.60
2023-05-05T20:57:37.706Z,10.70
2023-05-05T21:00:07.573Z,11.20
2023-05-05T21:02:36.328Z,12.70
2023-05-05T21:05:06.093Z,11.00
2023-05-05T21:07:34.817Z,13.70
2023-05-05T21:10:04.566Z,12.30
2023-05-05T21:12:34.239Z,11.10
2023-05-05T21:15:07.451Z,12.40
2023-05-05T21:17:40.093Z,10.20
2023-05-05T21:20:10.677Z,10.30
2023-05-05T21:22:46.054Z,10.20
2023-05-05T21:25:17.173Z,10.20
2023-05-05T21:27:46.957Z,9.60
2023-05-05T21:30:15.896Z,9.40
2023-05-05T21:32:45.052Z,9.70
2023-05-05T21:35:13.751Z,9.90
2023-05-05T21:37:42.472Z,9.40
2023-05-05T21:40:13.899Z,10.20
2023-05-05T21:42:43.422Z,9.90
2023-05-05T21:45:12.467Z,9.00
2023-05-05T21:47:41.030Z,8.80
2023-05-05T21:50:10.279Z,10.70
2023-05-05T21:52:38.884Z,9.30
2023-05-05T21:55:10.790Z,10.40
2023-05-05T21:57:39.137Z,9.60
2023-05-05T22:00:09.150Z,9.50
2023-05-05T22:02:45.465Z,9.90
2023-05-05T22:05:14.317Z,9.80
2023-05-05T22:07:42.394Z,9.60
2023-05-05T22:10:11.184Z,10.10
2023-05-05T22:12:39.903Z,8.30
2023-05-05T22:15:09.369Z,9.10
2023-05-05T22:17:38.226Z,8.30
2023-05-05T22:20:09.389Z,8.50
2023-05-05T22:22:37.719Z,9.00
2023-05-05T22:25:06.456Z,7.70
2023-05-05T22:27:34.684Z,8.90
2023-05-05T22:30:04.222Z,7.60
2023-05-05T22:32:32.606Z,8.10
2023-05-05T22:35:01.529Z,8.40
2023-05-05T22:37:31.773Z,9.00
2023-05-05T22:40:00.120Z,8.00
2023-05-05T22:42:29.808Z,8.90
2023-05-05T22:44:58.111Z,8.10
2023-05-05T22:47:26.383Z,8.20
2023-05-05T22:49:54.965Z,8.70
2023-05-05T22:52:23.140Z,8.80
2023-05-05T22:54:51.624Z,9.10
2023-05-05T22:57:20.943Z,8.20
2023-05-05T22:59:49.142Z,8.30
2023-05-05T23:02:17.393Z,8.50
2023-05-05T23:04:45.702Z,9.20
2023-05-05T23:07:13.861Z,9.80
2023-05-05T23:09:42.149Z,8.80
2023-05-05T23:12:10.433Z,9.10
2023-05-05T23:14:39.009Z,9.10
2023-05-05T23:17:07.551Z,9.80
2023-05-05T23:19:36.554Z,9.70
2023-05-05T23:22:04.912Z,8.60
2023-05-05T23:24:33.271Z,8.70
2023-05-05T23:27:04.818Z,8.80
2023-05-05T23:29:33.417Z,8.70
2023-05-05T23:32:01.581Z,8.90
2023-05-05T23:34:29.770Z,8.30
2023-05-05T23:36:58.058Z,9.30
2023-05-05T23:39:26.749Z,9.10
2023-05-05T23:41:54.939Z,9.10
2023-05-05T23:44:23.095Z,8.60
2023-05-05T23:46:51.384Z,8.50
2023-05-05T23:49:19.704Z,8.40
2023-05-05T23:51:47.946Z,8.40
2023-05-05T23:54:16.227Z,8.20
2023-05-05T23:56:45.945Z,7.40
2023-05-05T23:59:14.122Z,8.50
